KDNL/DNL METAR and TAF weather

Enter ICAO airport designator
Station Type Date Time Source
KDNL METAR 2021/07/29 01:53 UTC NOAA

KDNL 290153Z AUTO 22005KT 10SM CLR 28/24 A3000 RMK AO2 SLP152 T02830239


Station Type Date Time Source
KDNL Decoded METAR 2021/07/29 01:53 UTC NOAA

AUGUSTA DANIEL FIELD, GA, United States (KDNL) 33-28N 82-02W 130M
Jul 28, 2021 - 09:53 PM EDT / 2021.07.29 0153 UTC
Wind: from the SW (220 degrees) at 6 MPH (5 KT):0
Visibility: 10 mile(s):0
Sky conditions: clear
Temperature: 82.9 F (28.3 C)
Dew Point: 75.0 F (23.9 C)
Relative Humidity: 77%
Pressure (altimeter): 30 in. Hg (1015 hPa)
ob: KDNL 290153Z AUTO 22005KT 10SM CLR 28/24 A3000 RMK AO2 SLP152 T02830239
cycle: 2

Station Type Date Time Source
KDNL TAF 2021/07/28 21:42 UTC NOAA

TAF
AMD KDNL 282038Z 2821/2918 17006KT P6SM SCT035 BKN120
FM290000 VRB03KT P6SM SCT035
FM290900 00000KT 3SM BR FEW008
FM291300 VRB03KT P6SM FEW250

Example: see airport list